Herriman, Utah
Current Conditions -  °F | °C
As of 5:53 AM on Friday 31 Oct 2014 (Local Time) from KSLC Reporting Station
Scattered Clouds Scattered Clouds  
Wind Chill: 58°   Ceiling: Unl
Heat Index: 58°   Visibility: 10mi
Dew Point: 23°   Wind: 16mph
Humidity: 26%   Direction: 140°SE
Pressure: 30.01"   Gusts: 26mph
Location:  40.52°N, 112.03°W
Report Text: KSLC 311153Z 14014G23KT 10SM SCT200 14/M05 A3001 RMK AO2 SLP128 T01441050 10161 20100 57014
Loading
Personal Weather Stations






























Interactive Weather Map
Tropical Storm Tracking
New forecast layout! Learn more

10-Day Weather Forecast

Advertisements
Track Severe Weather on mobile